F/V War Raog III — FONQ — position and weather

sailwx.info

Track history (hours):
 
Tides and Currents Weather Stations Pressure Air Temp Water Temp Dewpoint Dewpoint Depression Visibility Wind Speed Wind Dir Waves Ship Positions

F/V War Raog III

Last reported at 2017-Nov-20 00:25 UTC. Time now 2017-Nov-22 14:52 UTC.
Position N 43°23' W 001°40'.

Length 16 m.

Type: Fishing. MMSI: 227144200.

Date/timePositionNaut miles runAvg speedWind from/ knotsBaromVisibWave heightAir tempDewpointWater temp
2017-Nov-20 00:25N 43°23' W 001°40'0 0.5
2017-Nov-20 00:01N 43°23' W 001°40'2 3.0
2017-Nov-19 23:30N 43°25' W 001°41'0 0.3
2017-Nov-19 23:00N 43°25' W 001°41'0 0.2
2017-Nov-19 22:30N 43°24' W 001°41'3 5.9
2017-Nov-19 22:01N 43°27' W 001°39'5 9.4
2017-Nov-19 21:30N 43°31' W 001°36'5 9.5
2017-Nov-19 21:00N 43°36' W 001°34'5 9.5
2017-Nov-19 20:30N 43°40' W 001°32'8 9.7
2017-Nov-19 19:43N 43°47' W 001°28'2 9.5
2017-Nov-19 19:30N 43°49' W 001°27'5 9.5
2017-Nov-19 19:00N 43°54' W 001°25'0 0.2
2017-Nov-19 18:29N 43°54' W 001°24'2 2.7
2017-Nov-19 17:55N 43°55' W 001°25'0 0.3
2017-Nov-19 17:25N 43°55' W 001°24'1 1.0
2017-Nov-19 16:46N 43°56' W 001°25'0 0.4
2017-Nov-19 16:30N 43°56' W 001°25'0 0.9
2017-Nov-19 15:59N 43°56' W 001°24'0 0.3
2017-Nov-19 15:30N 43°56' W 001°24'0 0.4
2017-Nov-19 15:00N 43°56' W 001°24'3 6.1
2017-Nov-19 14:28N 43°59' W 001°23'4 9.2
2017-Nov-19 14:00N 44°04' W 001°23'5 9.4
2017-Nov-19 13:30N 44°08' W 001°22'5 9.4
2017-Nov-19 13:00N 44°13' W 001°21'5 9.5
2017-Nov-19 12:30N 44°17' W 001°20'5 9.6
2017-Nov-19 12:00N 44°22' W 001°20'5 9.5
2017-Nov-19 11:30N 44°27' W 001°20'5 9.5
2017-Nov-19 11:00N 44°32' W 001°21'5 9.5
2017-Nov-19 10:30N 44°36' W 001°21'5 9.3
2017-Nov-19 10:00N 44°41' W 001°22'5 9.3
2017-Nov-19 09:30N 44°46' W 001°22'5 9.4
2017-Nov-19 09:00N 44°50' W 001°21'44 9.7
2017-Nov-19 04:27N 45°35' W 001°25'25 9.6
2017-Nov-19 01:52N 45°58' W 001°35'3 9.4
2017-Nov-19 01:30N 46°02' W 001°36'5 9.6
2017-Nov-19 01:00N 46°06' W 001°40'5 9.8
2017-Nov-19 00:30N 46°09' W 001°44'5 9.7
2017-Nov-19 00:00N 46°13' W 001°49'5 9.7
2017-Nov-18 23:30N 46°17' W 001°54'5 9.6
2017-Nov-18 22:58N 46°21' W 001°58'4 9.6
2017-Nov-18 22:30N 46°24' W 002°02'5 9.4
2017-Nov-18 22:00N 46°28' W 002°07'5 9.4
2017-Nov-18 21:27N 46°32' W 002°12'8 9.4
2017-Nov-18 20:37N 46°38' W 002°19'8 9.2
2017-Nov-18 19:46N 46°43' W 002°27'3 9.5
2017-Nov-18 19:28N 46°46' W 002°30'11 9.6
2017-Nov-18 18:17N 46°54' W 002°41'10 9.7
2017-Nov-18 17:17N 47°01' W 002°51'4 9.9
2017-Nov-18 16:52N 47°04' W 002°55'610.0
2017-Nov-18 16:14N 47°08' W 003°02'2 9.8
2017-Nov-18 16:00N 47°10' W 003°04'14 9.8
2017-Nov-18 14:34N 47°20' W 003°18'2 9.6
2017-Nov-18 14:21N 47°22' W 003°20'3 9.4
2017-Nov-18 14:00N 47°25' W 003°23'5 9.2
2017-Nov-18 13:30N 47°28' W 003°27'5 9.1
2017-Nov-18 13:00N 47°32' W 003°30'5 9.3
2017-Nov-18 12:30N 47°36' W 003°34'5 9.2
2017-Nov-18 12:00N 47°40' W 003°38'5 9.4
2017-Nov-18 11:30N 47°42' W 003°43'6 9.5
2017-Nov-18 10:50N 47°46' W 003°51'3 9.2
2017-Nov-18 10:30N 47°48' W 003°55'3 0.1
2017-Nov-16 14:53N 47°51' W 003°56'1 0.1
2017-Nov-15 23:56N 47°50' W 003°57'17 9.6
2017-Nov-15 22:11N 47°46' W 004°21'2 9.6
2017-Nov-15 21:59N 47°47' W 004°23'6 9.7
2017-Nov-15 21:22N 47°51' W 004°30'4 9.8
2017-Nov-15 21:00N 47°53' W 004°34'5 9.7
2017-Nov-15 20:30N 47°57' W 004°39'5 9.2
2017-Nov-15 20:01N 48°00' W 004°43'4 7.5
2017-Nov-15 19:30N 48°04' W 004°45'510.0
2017-Nov-15 19:00N 48°05' W 004°38'510.2
2017-Nov-15 18:30N 48°07' W 004°30'1 2.4
2017-Nov-15 18:00N 48°08' W 004°29'0 0.6
2017-Nov-15 17:30N 48°08' W 004°29'0 0.6
2017-Nov-15 17:01N 48°08' W 004°28'1 1.8
2017-Nov-15 16:30N 48°08' W 004°27'5 9.9
2017-Nov-15 16:01N 48°06' W 004°20'1 1.1
2017-Nov-15 15:30N 48°06' W 004°20'0 0.0
2017-Nov-14 22:23N 48°06' W 004°20'0 0.3
2017-Nov-14 22:01N 48°06' W 004°19'0 0.0
2017-Nov-14 21:30N 48°06' W 004°19'0 0.0
2017-Nov-14 21:00N 48°06' W 004°19'0 0.0
2017-Nov-14 20:30N 48°06' W 004°19'0 0.0
2017-Nov-14 20:00N 48°06' W 004°19'3 5.0
2017-Nov-14 19:30N 48°07' W 004°23'2 4.3
2017-Nov-14 19:01N 48°08' W 004°26'0 0.7
2017-Nov-14 18:30N 48°07' W 004°26'0 0.5
2017-Nov-14 18:00N 48°07' W 004°26'0 0.2
2017-Nov-14 17:31N 48°07' W 004°26'1 1.9
2017-Nov-14 17:01N 48°07' W 004°24'0 0.2
2017-Nov-14 16:31N 48°07' W 004°24'3 6.7
2017-Nov-14 16:00N 48°06' W 004°20'0 0.0
2017-Nov-14 15:30N 48°06' W 004°20'0 0.0
2017-Nov-14 05:27N 48°06' W 004°19'0 0.0
2017-Nov-14 05:00N 48°06' W 004°19'2 4.4
2017-Nov-14 04:30N 48°07' W 004°22'2 4.1
2017-Nov-14 04:01N 48°08' W 004°25'2 3.3
2017-Nov-14 03:30N 48°07' W 004°27'4 7.9
2017-Nov-14 03:01N 48°06' W 004°33'5 9.7
2017-Nov-14 02:31N 48°05' W 004°40'4 8.1
2017-Nov-14 02:00N 48°03' W 004°46'4 7.1
2017-Nov-14 01:30N 48°00' W 004°42'5 9.2
2017-Nov-14 01:00N 47°57' W 004°37'6 9.6
2017-Nov-14 00:20N 47°52' W 004°31'3 9.7
2017-Nov-14 00:00N 47°50' W 004°28'5 9.5
2017-Nov-13 23:30N 47°47' W 004°22'17 0.8
2017-Nov-13 01:42N 47°50' W 003°57'0 1.0
2017-Nov-13 01:25N 47°50' W 003°57'2 3.4
2017-Nov-13 00:59N 47°49' W 003°55'1 1.1
2017-Nov-13 00:19N 47°49' W 003°56'4 3.9
2017-Nov-12 23:22N 47°46' W 003°53'4 9.6
2017-Nov-12 22:59N 47°45' W 003°48'4 9.4
2017-Nov-12 22:30N 47°44' W 003°41'3 5.6
2017-Nov-12 22:00N 47°44' W 003°37'1 1.5
2017-Nov-12 21:30N 47°44' W 003°36'1 1.1
2017-Nov-12 21:00N 47°44' W 003°35'0 0.8
2017-Nov-12 20:30N 47°44' W 003°36'6 5.8
2017-Nov-12 19:33N 47°45' W 003°44'1 9.7
2017-Nov-12 19:29N 47°45' W 003°43'5 9.7
2017-Nov-12 19:00N 47°44' W 003°36'5 9.5
2017-Nov-12 18:30N 47°42' W 003°30'4 8.7
2017-Nov-12 18:00N 47°40' W 003°24'0 0.8
2017-Nov-12 17:30N 47°40' W 003°24'2 3.8
2017-Nov-12 17:00N 47°40' W 003°27'510.2
2017-Nov-12 16:30N 47°43' W 003°34'  
2017-Nov-10 01:29N 47°51' W 003°56'4 6.7
2017-Nov-10 00:53N 47°47' W 003°57'  
Track history (hours):
 
Tides and Currents Weather Stations Pressure Air Temp Water Temp Dewpoint Dewpoint Depression Visibility Wind Speed Wind Dir Waves Ship Positions

F/V War Raog III

Last reported at 2017-Nov-20 00:25 UTC. Time now 2017-Nov-22 14:52 UTC.
Position N 43°23' W 001°40'.

Length 16 m.

Type: Fishing. MMSI: 227144200.

Date/timePositionNaut miles runAvg speedWind from/ knotsBaromVisibWave heightAir tempDewpointWater temp
2017-Nov-20 00:25N 43°23' W 001°40'0 0.5
2017-Nov-20 00:01N 43°23' W 001°40'2 3.0
2017-Nov-19 23:30N 43°25' W 001°41'0 0.3
2017-Nov-19 23:00N 43°25' W 001°41'0 0.2
2017-Nov-19 22:30N 43°24' W 001°41'3 5.9
2017-Nov-19 22:01N 43°27' W 001°39'5 9.4
2017-Nov-19 21:30N 43°31' W 001°36'5 9.5
2017-Nov-19 21:00N 43°36' W 001°34'5 9.5
2017-Nov-19 20:30N 43°40' W 001°32'8 9.7
2017-Nov-19 19:43N 43°47' W 001°28'2 9.5
2017-Nov-19 19:30N 43°49' W 001°27'5 9.5
2017-Nov-19 19:00N 43°54' W 001°25'0 0.2
2017-Nov-19 18:29N 43°54' W 001°24'2 2.7
2017-Nov-19 17:55N 43°55' W 001°25'0 0.3
2017-Nov-19 17:25N 43°55' W 001°24'1 1.0
2017-Nov-19 16:46N 43°56' W 001°25'0 0.4
2017-Nov-19 16:30N 43°56' W 001°25'0 0.9
2017-Nov-19 15:59N 43°56' W 001°24'0 0.3
2017-Nov-19 15:30N 43°56' W 001°24'0 0.4
2017-Nov-19 15:00N 43°56' W 001°24'3 6.1
2017-Nov-19 14:28N 43°59' W 001°23'4 9.2
2017-Nov-19 14:00N 44°04' W 001°23'5 9.4
2017-Nov-19 13:30N 44°08' W 001°22'5 9.4
2017-Nov-19 13:00N 44°13' W 001°21'5 9.5
2017-Nov-19 12:30N 44°17' W 001°20'5 9.6
2017-Nov-19 12:00N 44°22' W 001°20'5 9.5
2017-Nov-19 11:30N 44°27' W 001°20'5 9.5
2017-Nov-19 11:00N 44°32' W 001°21'5 9.5
2017-Nov-19 10:30N 44°36' W 001°21'5 9.3
2017-Nov-19 10:00N 44°41' W 001°22'5 9.3
2017-Nov-19 09:30N 44°46' W 001°22'5 9.4
2017-Nov-19 09:00N 44°50' W 001°21'44 9.7
2017-Nov-19 04:27N 45°35' W 001°25'25 9.6
2017-Nov-19 01:52N 45°58' W 001°35'3 9.4
2017-Nov-19 01:30N 46°02' W 001°36'5 9.6
2017-Nov-19 01:00N 46°06' W 001°40'5 9.8
2017-Nov-19 00:30N 46°09' W 001°44'5 9.7
2017-Nov-19 00:00N 46°13' W 001°49'5 9.7
2017-Nov-18 23:30N 46°17' W 001°54'5 9.6
2017-Nov-18 22:58N 46°21' W 001°58'4 9.6
2017-Nov-18 22:30N 46°24' W 002°02'5 9.4
2017-Nov-18 22:00N 46°28' W 002°07'5 9.4
2017-Nov-18 21:27N 46°32' W 002°12'8 9.4
2017-Nov-18 20:37N 46°38' W 002°19'8 9.2
2017-Nov-18 19:46N 46°43' W 002°27'3 9.5
2017-Nov-18 19:28N 46°46' W 002°30'11 9.6
2017-Nov-18 18:17N 46°54' W 002°41'10 9.7
2017-Nov-18 17:17N 47°01' W 002°51'4 9.9
2017-Nov-18 16:52N 47°04' W 002°55'610.0
2017-Nov-18 16:14N 47°08' W 003°02'2 9.8
2017-Nov-18 16:00N 47°10' W 003°04'14 9.8
2017-Nov-18 14:34N 47°20' W 003°18'2 9.6
2017-Nov-18 14:21N 47°22' W 003°20'3 9.4
2017-Nov-18 14:00N 47°25' W 003°23'5 9.2
2017-Nov-18 13:30N 47°28' W 003°27'5 9.1
2017-Nov-18 13:00N 47°32' W 003°30'5 9.3
2017-Nov-18 12:30N 47°36' W 003°34'5 9.2
2017-Nov-18 12:00N 47°40' W 003°38'5 9.4
2017-Nov-18 11:30N 47°42' W 003°43'6 9.5
2017-Nov-18 10:50N 47°46' W 003°51'3 9.2
2017-Nov-18 10:30N 47°48' W 003°55'3 0.1
2017-Nov-16 14:53N 47°51' W 003°56'1 0.1
2017-Nov-15 23:56N 47°50' W 003°57'17 9.6
2017-Nov-15 22:11N 47°46' W 004°21'2 9.6
2017-Nov-15 21:59N 47°47' W 004°23'6 9.7
2017-Nov-15 21:22N 47°51' W 004°30'4 9.8
2017-Nov-15 21:00N 47°53' W 004°34'5 9.7
2017-Nov-15 20:30N 47°57' W 004°39'5 9.2
2017-Nov-15 20:01N 48°00' W 004°43'4 7.5
2017-Nov-15 19:30N 48°04' W 004°45'510.0
2017-Nov-15 19:00N 48°05' W 004°38'510.2
2017-Nov-15 18:30N 48°07' W 004°30'1 2.4
2017-Nov-15 18:00N 48°08' W 004°29'0 0.6
2017-Nov-15 17:30N 48°08' W 004°29'0 0.6
2017-Nov-15 17:01N 48°08' W 004°28'1 1.8
2017-Nov-15 16:30N 48°08' W 004°27'5 9.9
2017-Nov-15 16:01N 48°06' W 004°20'1 1.1
2017-Nov-15 15:30N 48°06' W 004°20'0 0.0
2017-Nov-14 22:23N 48°06' W 004°20'0 0.3
2017-Nov-14 22:01N 48°06' W 004°19'0 0.0
2017-Nov-14 21:30N 48°06' W 004°19'0 0.0
2017-Nov-14 21:00N 48°06' W 004°19'0 0.0
2017-Nov-14 20:30N 48°06' W 004°19'0 0.0
2017-Nov-14 20:00N 48°06' W 004°19'3 5.0
2017-Nov-14 19:30N 48°07' W 004°23'2 4.3
2017-Nov-14 19:01N 48°08' W 004°26'0 0.7
2017-Nov-14 18:30N 48°07' W 004°26'0 0.5
2017-Nov-14 18:00N 48°07' W 004°26'0 0.2
2017-Nov-14 17:31N 48°07' W 004°26'1 1.9
2017-Nov-14 17:01N 48°07' W 004°24'0 0.2
2017-Nov-14 16:31N 48°07' W 004°24'3 6.7
2017-Nov-14 16:00N 48°06' W 004°20'0 0.0
2017-Nov-14 15:30N 48°06' W 004°20'0 0.0
2017-Nov-14 05:27N 48°06' W 004°19'0 0.0
2017-Nov-14 05:00N 48°06' W 004°19'2 4.4
2017-Nov-14 04:30N 48°07' W 004°22'2 4.1
2017-Nov-14 04:01N 48°08' W 004°25'2 3.3
2017-Nov-14 03:30N 48°07' W 004°27'4 7.9
2017-Nov-14 03:01N 48°06' W 004°33'5 9.7
2017-Nov-14 02:31N 48°05' W 004°40'4 8.1
2017-Nov-14 02:00N 48°03' W 004°46'4 7.1
2017-Nov-14 01:30N 48°00' W 004°42'5 9.2
2017-Nov-14 01:00N 47°57' W 004°37'6 9.6
2017-Nov-14 00:20N 47°52' W 004°31'3 9.7
2017-Nov-14 00:00N 47°50' W 004°28'5 9.5
2017-Nov-13 23:30N 47°47' W 004°22'17 0.8
2017-Nov-13 01:42N 47°50' W 003°57'0 1.0
2017-Nov-13 01:25N 47°50' W 003°57'2 3.4
2017-Nov-13 00:59N 47°49' W 003°55'1 1.1
2017-Nov-13 00:19N 47°49' W 003°56'4 3.9
2017-Nov-12 23:22N 47°46' W 003°53'4 9.6
2017-Nov-12 22:59N 47°45' W 003°48'4 9.4
2017-Nov-12 22:30N 47°44' W 003°41'3 5.6
2017-Nov-12 22:00N 47°44' W 003°37'1 1.5
2017-Nov-12 21:30N 47°44' W 003°36'1 1.1
2017-Nov-12 21:00N 47°44' W 003°35'0 0.8
2017-Nov-12 20:30N 47°44' W 003°36'6 5.8
2017-Nov-12 19:33N 47°45' W 003°44'1 9.7
2017-Nov-12 19:29N 47°45' W 003°43'5 9.7
2017-Nov-12 19:00N 47°44' W 003°36'5 9.5
2017-Nov-12 18:30N 47°42' W 003°30'4 8.7
2017-Nov-12 18:00N 47°40' W 003°24'0 0.8
2017-Nov-12 17:30N 47°40' W 003°24'2 3.8
2017-Nov-12 17:00N 47°40' W 003°27'510.2
2017-Nov-12 16:30N 47°43' W 003°34'  
2017-Nov-10 01:29N 47°51' W 003°56'4 6.7
2017-Nov-10 00:53N 47°47' W 003°57'  

Dump ship's entire track history